sensor_id;sensor_type;location;lat;lon;timestamp;P1;durP1;ratioP1;P2;durP2;ratioP2
15281;SDS011;7742;44.320;19.820;2023-02-15T00:01:29;39.55;;;36.33;;
15281;SDS011;7742;44.320;19.820;2023-02-15T00:03:58;41.72;;;38.22;;
15281;SDS011;7742;44.320;19.820;2023-02-15T00:06:26;40.90;;;37.50;;
15281;SDS011;7742;44.320;19.820;2023-02-15T00:08:53;41.55;;;38.15;;
15281;SDS011;7742;44.320;19.820;2023-02-15T00:11:21;40.97;;;37.63;;
15281;SDS011;7742;44.320;19.820;2023-02-15T00:14:02;40.70;;;37.38;;
15281;SDS011;7742;44.320;19.820;2023-02-15T00:16:29;39.65;;;36.38;;
15281;SDS011;7742;44.320;19.820;2023-02-15T00:19:00;40.30;;;37.10;;
15281;SDS011;7742;44.320;19.820;2023-02-15T00:21:27;36.97;;;34.08;;
15281;SDS011;7742;44.320;19.820;2023-02-15T00:23:55;38.63;;;35.63;;
15281;SDS011;7742;44.320;19.820;2023-02-15T00:26:22;37.63;;;34.63;;
15281;SDS011;7742;44.320;19.820;2023-02-15T00:28:50;37.92;;;34.97;;
15281;SDS011;7742;44.320;19.820;2023-02-15T00:31:17;39.38;;;36.33;;
15281;SDS011;7742;44.320;19.820;2023-02-15T00:33:44;37.63;;;34.72;;
15281;SDS011;7742;44.320;19.820;2023-02-15T00:36:13;39.08;;;35.90;;
15281;SDS011;7742;44.320;19.820;2023-02-15T00:38:40;38.42;;;35.28;;
15281;SDS011;7742;44.320;19.820;2023-02-15T00:41:08;38.43;;;35.40;;
15281;SDS011;7742;44.320;19.820;2023-02-15T00:43:35;37.67;;;34.78;;
15281;SDS011;7742;44.320;19.820;2023-02-15T00:46:03;36.88;;;33.97;;
15281;SDS011;7742;44.320;19.820;2023-02-15T00:48:31;36.85;;;33.97;;
15281;SDS011;7742;44.320;19.820;2023-02-15T00:50:59;37.40;;;34.50;;
15281;SDS011;7742;44.320;19.820;2023-02-15T00:53:28;37.97;;;34.97;;
15281;SDS011;7742;44.320;19.820;2023-02-15T00:56:05;37.85;;;34.85;;
15281;SDS011;7742;44.320;19.820;2023-02-15T00:58:33;38.72;;;35.75;;
15281;SDS011;7742;44.320;19.820;2023-02-15T01:01:02;37.53;;;34.53;;
15281;SDS011;7742;44.320;19.820;2023-02-15T01:03:31;37.80;;;34.83;;
15281;SDS011;7742;44.320;19.820;2023-02-15T01:05:59;37.70;;;34.70;;
15281;SDS011;7742;44.320;19.820;2023-02-15T01:08:28;36.72;;;33.83;;
15281;SDS011;7742;44.320;19.820;2023-02-15T01:10:55;37.08;;;34.25;;
15281;SDS011;7742;44.320;19.820;2023-02-15T01:13:22;37.90;;;34.92;;
15281;SDS011;7742;44.320;19.820;2023-02-15T01:15:52;37.22;;;34.35;;
15281;SDS011;7742;44.320;19.820;2023-02-15T01:18:19;35.20;;;32.53;;
15281;SDS011;7742;44.320;19.820;2023-02-15T01:20:47;35.17;;;32.53;;
15281;SDS011;7742;44.320;19.820;2023-02-15T01:23:14;35.65;;;32.97;;
15281;SDS011;7742;44.320;19.820;2023-02-15T01:25:43;35.22;;;32.63;;
15281;SDS011;7742;44.320;19.820;2023-02-15T01:28:10;36.50;;;33.75;;
15281;SDS011;7742;44.320;19.820;2023-02-15T01:30:38;37.25;;;34.35;;
15281;SDS011;7742;44.320;19.820;2023-02-15T01:33:05;37.65;;;34.83;;
15281;SDS011;7742;44.320;19.820;2023-02-15T01:35:32;39.33;;;36.22;;
15281;SDS011;7742;44.320;19.820;2023-02-15T01:37:59;38.50;;;35.60;;
15281;SDS011;7742;44.320;19.820;2023-02-15T01:40:26;40.72;;;37.53;;
15281;SDS011;7742;44.320;19.820;2023-02-15T01:42:55;39.55;;;36.33;;
15281;SDS011;7742;44.320;19.820;2023-02-15T01:45:23;40.20;;;37.10;;
15281;SDS011;7742;44.320;19.820;2023-02-15T01:47:52;39.97;;;36.78;;
15281;SDS011;7742;44.320;19.820;2023-02-15T01:50:23;38.08;;;35.10;;
15281;SDS011;7742;44.320;19.820;2023-02-15T01:52:54;37.17;;;34.33;;
15281;SDS011;7742;44.320;19.820;2023-02-15T01:55:25;37.97;;;34.88;;
15281;SDS011;7742;44.320;19.820;2023-02-15T01:57:54;37.73;;;34.73;;
15281;SDS011;7742;44.320;19.820;2023-02-15T02:00:23;37.47;;;34.47;;
15281;SDS011;7742;44.320;19.820;2023-02-15T02:02:50;39.42;;;36.33;;
15281;SDS011;7742;44.320;19.820;2023-02-15T02:05:19;38.17;;;35.10;;
15281;SDS011;7742;44.320;19.820;2023-02-15T02:07:46;39.50;;;36.33;;
15281;SDS011;7742;44.320;19.820;2023-02-15T02:10:16;39.15;;;36.05;;
15281;SDS011;7742;44.320;19.820;2023-02-15T02:12:45;38.53;;;35.53;;
15281;SDS011;7742;44.320;19.820;2023-02-15T02:15:14;38.40;;;35.30;;
15281;SDS011;7742;44.320;19.820;2023-02-15T02:17:44;36.65;;;33.75;;
15281;SDS011;7742;44.320;19.820;2023-02-15T02:20:26;36.40;;;33.63;;
15281;SDS011;7742;44.320;19.820;2023-02-15T02:23:16;37.03;;;34.23;;
15281;SDS011;7742;44.320;19.820;2023-02-15T02:29:13;36.42;;;33.72;;
15281;SDS011;7742;44.320;19.820;2023-02-15T02:32:07;37.80;;;34.88;;
15281;SDS011;7742;44.320;19.820;2023-02-15T02:34:55;37.10;;;34.30;;
15281;SDS011;7742;44.320;19.820;2023-02-15T02:37:26;37.20;;;34.50;;
15281;SDS011;7742;44.320;19.820;2023-02-15T02:39:58;37.22;;;34.42;;
15281;SDS011;7742;44.320;19.820;2023-02-15T02:42:29;36.65;;;33.95;;
15281;SDS011;7742;44.320;19.820;2023-02-15T02:45:00;37.75;;;34.85;;
15281;SDS011;7742;44.320;19.820;2023-02-15T02:47:30;37.85;;;35.05;;
15281;SDS011;7742;44.320;19.820;2023-02-15T02:52:49;37.92;;;34.83;;
15281;SDS011;7742;44.320;19.820;2023-02-15T02:55:17;38.30;;;35.30;;
15281;SDS011;7742;44.320;19.820;2023-02-15T02:57:51;39.33;;;36.30;;
15281;SDS011;7742;44.320;19.820;2023-02-15T03:00:21;38.38;;;35.40;;
15281;SDS011;7742;44.320;19.820;2023-02-15T03:02:53;40.08;;;36.88;;
15281;SDS011;7742;44.320;19.820;2023-02-15T03:05:25;37.87;;;34.93;;
15281;SDS011;7742;44.320;19.820;2023-02-15T03:07:54;38.90;;;35.90;;
15281;SDS011;7742;44.320;19.820;2023-02-15T03:10:22;37.63;;;34.72;;
15281;SDS011;7742;44.320;19.820;2023-02-15T03:12:51;38.58;;;35.67;;
15281;SDS011;7742;44.320;19.820;2023-02-15T03:15:19;39.60;;;36.58;;
15281;SDS011;7742;44.320;19.820;2023-02-15T03:17:56;38.38;;;35.25;;
15281;SDS011;7742;44.320;19.820;2023-02-15T03:21:02;39.78;;;36.67;;
15281;SDS011;7742;44.320;19.820;2023-02-15T03:23:30;40.58;;;37.30;;
15281;SDS011;7742;44.320;19.820;2023-02-15T03:25:58;38.65;;;35.65;;
15281;SDS011;7742;44.320;19.820;2023-02-15T03:28:27;40.08;;;36.97;;
15281;SDS011;7742;44.320;19.820;2023-02-15T03:30:58;44.92;;;41.10;;
15281;SDS011;7742;44.320;19.820;2023-02-15T03:34:02;42.53;;;38.92;;
15281;SDS011;7742;44.320;19.820;2023-02-15T03:36:33;48.47;;;44.27;;
15281;SDS011;7742;44.320;19.820;2023-02-15T03:39:07;39.85;;;36.65;;
15281;SDS011;7742;44.320;19.820;2023-02-15T03:41:39;40.33;;;37.03;;
15281;SDS011;7742;44.320;19.820;2023-02-15T03:44:11;39.67;;;36.28;;
15281;SDS011;7742;44.320;19.820;2023-02-15T03:46:42;38.83;;;35.72;;
15281;SDS011;7742;44.320;19.820;2023-02-15T03:49:16;40.17;;;36.95;;
15281;SDS011;7742;44.320;19.820;2023-02-15T03:51:47;42.03;;;38.63;;
15281;SDS011;7742;44.320;19.820;2023-02-15T03:54:18;38.78;;;35.80;;
15281;SDS011;7742;44.320;19.820;2023-02-15T03:57:01;38.22;;;35.15;;
15281;SDS011;7742;44.320;19.820;2023-02-15T03:59:45;38.83;;;35.83;;
15281;SDS011;7742;44.320;19.820;2023-02-15T04:06:22;38.83;;;35.92;;
15281;SDS011;7742;44.320;19.820;2023-02-15T04:08:51;38.55;;;35.55;;
15281;SDS011;7742;44.320;19.820;2023-02-15T04:11:35;38.65;;;35.65;;
15281;SDS011;7742;44.320;19.820;2023-02-15T04:14:02;37.38;;;34.47;;
15281;SDS011;7742;44.320;19.820;2023-02-15T04:16:50;37.35;;;34.35;;
15281;SDS011;7742;44.320;19.820;2023-02-15T04:19:17;36.20;;;33.30;;
15281;SDS011;7742;44.320;19.820;2023-02-15T04:22:01;35.80;;;33.00;;
15281;SDS011;7742;44.320;19.820;2023-02-15T04:24:47;35.30;;;32.60;;
15281;SDS011;7742;44.320;19.820;2023-02-15T04:27:35;35.10;;;32.50;;
15281;SDS011;7742;44.320;19.820;2023-02-15T04:30:03;34.63;;;32.03;;
15281;SDS011;7742;44.320;19.820;2023-02-15T04:32:31;35.78;;;32.90;;
15281;SDS011;7742;44.320;19.820;2023-02-15T04:35:00;37.28;;;34.35;;
15281;SDS011;7742;44.320;19.820;2023-02-15T04:37:28;36.50;;;33.60;;
15281;SDS011;7742;44.320;19.820;2023-02-15T04:39:56;36.37;;;33.43;;
15281;SDS011;7742;44.320;19.820;2023-02-15T04:42:24;36.30;;;33.50;;
15281;SDS011;7742;44.320;19.820;2023-02-15T04:44:52;36.20;;;33.40;;
15281;SDS011;7742;44.320;19.820;2023-02-15T04:47:19;36.05;;;33.17;;
15281;SDS011;7742;44.320;19.820;2023-02-15T04:49:46;35.97;;;33.17;;
15281;SDS011;7742;44.320;19.820;2023-02-15T04:52:14;35.90;;;33.07;;
15281;SDS011;7742;44.320;19.820;2023-02-15T04:54:42;35.38;;;32.58;;
15281;SDS011;7742;44.320;19.820;2023-02-15T04:57:11;35.72;;;32.92;;
15281;SDS011;7742;44.320;19.820;2023-02-15T04:59:43;35.53;;;32.72;;
15281;SDS011;7742;44.320;19.820;2023-02-15T05:02:10;34.50;;;31.88;;
15281;SDS011;7742;44.320;19.820;2023-02-15T05:04:38;34.33;;;31.73;;
15281;SDS011;7742;44.320;19.820;2023-02-15T05:07:05;35.35;;;32.50;;
15281;SDS011;7742;44.320;19.820;2023-02-15T05:09:32;35.05;;;32.35;;
15281;SDS011;7742;44.320;19.820;2023-02-15T05:11:59;35.03;;;32.22;;
15281;SDS011;7742;44.320;19.820;2023-02-15T05:14:28;34.05;;;31.45;;
15281;SDS011;7742;44.320;19.820;2023-02-15T05:16:55;33.72;;;31.17;;
15281;SDS011;7742;44.320;19.820;2023-02-15T05:19:26;34.28;;;31.58;;
15281;SDS011;7742;44.320;19.820;2023-02-15T05:21:53;35.33;;;32.60;;
15281;SDS011;7742;44.320;19.820;2023-02-15T05:24:20;33.47;;;30.80;;
15281;SDS011;7742;44.320;19.820;2023-02-15T05:27:05;35.53;;;32.75;;
15281;SDS011;7742;44.320;19.820;2023-02-15T05:29:52;34.97;;;32.30;;
15281;SDS011;7742;44.320;19.820;2023-02-15T05:32:20;34.65;;;31.85;;
15281;SDS011;7742;44.320;19.820;2023-02-15T05:34:47;33.72;;;31.15;;
15281;SDS011;7742;44.320;19.820;2023-02-15T05:37:14;35.38;;;32.67;;
15281;SDS011;7742;44.320;19.820;2023-02-15T05:39:43;34.90;;;32.30;;
15281;SDS011;7742;44.320;19.820;2023-02-15T05:42:11;35.55;;;32.80;;
15281;SDS011;7742;44.320;19.820;2023-02-15T05:44:41;34.92;;;32.20;;
15281;SDS011;7742;44.320;19.820;2023-02-15T05:49:58;35.17;;;32.58;;
15281;SDS011;7742;44.320;19.820;2023-02-15T05:52:25;34.83;;;32.13;;
15281;SDS011;7742;44.320;19.820;2023-02-15T05:54:54;34.30;;;31.67;;
15281;SDS011;7742;44.320;19.820;2023-02-15T05:57:34;33.92;;;31.33;;
15281;SDS011;7742;44.320;19.820;2023-02-15T06:00:01;33.85;;;31.25;;
15281;SDS011;7742;44.320;19.820;2023-02-15T06:05:19;35.45;;;32.70;;
15281;SDS011;7742;44.320;19.820;2023-02-15T06:07:55;34.97;;;32.20;;
15281;SDS011;7742;44.320;19.820;2023-02-15T06:10:39;33.95;;;31.45;;
15281;SDS011;7742;44.320;19.820;2023-02-15T06:13:09;32.80;;;30.15;;
15281;SDS011;7742;44.320;19.820;2023-02-15T06:15:36;34.78;;;32.08;;
15281;SDS011;7742;44.320;19.820;2023-02-15T06:18:05;33.40;;;30.90;;
15281;SDS011;7742;44.320;19.820;2023-02-15T06:20:34;33.85;;;31.25;;
15281;SDS011;7742;44.320;19.820;2023-02-15T06:23:01;34.13;;;31.33;;
15281;SDS011;7742;44.320;19.820;2023-02-15T06:25:29;36.20;;;33.50;;
15281;SDS011;7742;44.320;19.820;2023-02-15T06:27:56;34.67;;;32.07;;
15281;SDS011;7742;44.320;19.820;2023-02-15T06:30:23;35.07;;;32.37;;
15281;SDS011;7742;44.320;19.820;2023-02-15T06:32:50;32.67;;;30.08;;
15281;SDS011;7742;44.320;19.820;2023-02-15T06:35:19;32.72;;;30.25;;
15281;SDS011;7742;44.320;19.820;2023-02-15T06:37:47;34.80;;;32.20;;
15281;SDS011;7742;44.320;19.820;2023-02-15T06:40:14;35.15;;;32.45;;
15281;SDS011;7742;44.320;19.820;2023-02-15T06:42:42;33.92;;;31.33;;
15281;SDS011;7742;44.320;19.820;2023-02-15T06:45:09;33.08;;;30.58;;
15281;SDS011;7742;44.320;19.820;2023-02-15T06:47:37;37.10;;;34.40;;
15281;SDS011;7742;44.320;19.820;2023-02-15T06:50:04;34.45;;;31.85;;
15281;SDS011;7742;44.320;19.820;2023-02-15T06:52:34;33.63;;;31.00;;
15281;SDS011;7742;44.320;19.820;2023-02-15T06:55:01;34.80;;;32.15;;
15281;SDS011;7742;44.320;19.820;2023-02-15T06:57:28;32.80;;;30.30;;
15281;SDS011;7742;44.320;19.820;2023-02-15T06:59:55;31.90;;;29.40;;
15281;SDS011;7742;44.320;19.820;2023-02-15T07:02:23;31.98;;;29.55;;
15281;SDS011;7742;44.320;19.820;2023-02-15T07:04:50;33.28;;;30.67;;
15281;SDS011;7742;44.320;19.820;2023-02-15T07:07:17;32.72;;;30.35;;
15281;SDS011;7742;44.320;19.820;2023-02-15T07:12:28;33.05;;;30.65;;
15281;SDS011;7742;44.320;19.820;2023-02-15T07:15:11;33.78;;;31.17;;
15281;SDS011;7742;44.320;19.820;2023-02-15T07:17:40;32.95;;;30.55;;
15281;SDS011;7742;44.320;19.820;2023-02-15T07:20:08;34.53;;;31.85;;
15281;SDS011;7742;44.320;19.820;2023-02-15T07:22:37;34.42;;;31.80;;
15281;SDS011;7742;44.320;19.820;2023-02-15T07:25:07;33.40;;;30.98;;
15281;SDS011;7742;44.320;19.820;2023-02-15T07:27:35;34.25;;;31.83;;
15281;SDS011;7742;44.320;19.820;2023-02-15T07:30:03;35.10;;;32.50;;
15281;SDS011;7742;44.320;19.820;2023-02-15T07:32:35;35.95;;;33.15;;
15281;SDS011;7742;44.320;19.820;2023-02-15T07:35:23;32.60;;;30.20;;
15281;SDS011;7742;44.320;19.820;2023-02-15T07:37:50;31.63;;;29.33;;
15281;SDS011;7742;44.320;19.820;2023-02-15T07:40:19;30.77;;;28.58;;
15281;SDS011;7742;44.320;19.820;2023-02-15T07:42:48;31.10;;;28.90;;
15281;SDS011;7742;44.320;19.820;2023-02-15T07:45:19;30.60;;;28.40;;
15281;SDS011;7742;44.320;19.820;2023-02-15T07:47:47;33.58;;;31.00;;
15281;SDS011;7742;44.320;19.820;2023-02-15T07:50:14;33.20;;;30.80;;
15281;SDS011;7742;44.320;19.820;2023-02-15T07:52:41;31.38;;;29.17;;
15281;SDS011;7742;44.320;19.820;2023-02-15T07:55:09;32.15;;;29.95;;
15281;SDS011;7742;44.320;19.820;2023-02-15T07:57:42;29.33;;;27.25;;
15281;SDS011;7742;44.320;19.820;2023-02-15T08:00:11;32.00;;;29.67;;
15281;SDS011;7742;44.320;19.820;2023-02-15T08:03:01;27.13;;;25.33;;
15281;SDS011;7742;44.320;19.820;2023-02-15T08:05:41;29.88;;;27.88;;
15281;SDS011;7742;44.320;19.820;2023-02-15T08:08:10;27.27;;;25.58;;
15281;SDS011;7742;44.320;19.820;2023-02-15T08:10:57;24.52;;;23.02;;
15281;SDS011;7742;44.320;19.820;2023-02-15T08:13:44;27.42;;;25.63;;
15281;SDS011;7742;44.320;19.820;2023-02-15T08:16:19;25.90;;;24.20;;
15281;SDS011;7742;44.320;19.820;2023-02-15T08:18:49;26.25;;;24.55;;
15281;SDS011;7742;44.320;19.820;2023-02-15T08:21:16;25.43;;;23.83;;
15281;SDS011;7742;44.320;19.820;2023-02-15T08:23:44;25.13;;;23.50;;
15281;SDS011;7742;44.320;19.820;2023-02-15T08:26:11;23.98;;;22.38;;
15281;SDS011;7742;44.320;19.820;2023-02-15T08:28:38;24.05;;;22.45;;
15281;SDS011;7742;44.320;19.820;2023-02-15T08:31:07;26.23;;;24.63;;
15281;SDS011;7742;44.320;19.820;2023-02-15T08:33:36;25.53;;;23.83;;
15281;SDS011;7742;44.320;19.820;2023-02-15T08:36:04;26.85;;;24.95;;
15281;SDS011;7742;44.320;19.820;2023-02-15T08:38:32;26.70;;;25.00;;
15281;SDS011;7742;44.320;19.820;2023-02-15T08:41:08;26.05;;;24.35;;
15281;SDS011;7742;44.320;19.820;2023-02-15T08:43:36;26.52;;;24.63;;
15281;SDS011;7742;44.320;19.820;2023-02-15T08:46:04;27.00;;;25.33;;
15281;SDS011;7742;44.320;19.820;2023-02-15T08:48:32;26.75;;;25.05;;
15281;SDS011;7742;44.320;19.820;2023-02-15T08:51:03;27.05;;;25.35;;
15281;SDS011;7742;44.320;19.820;2023-02-15T08:53:32;27.00;;;25.20;;
15281;SDS011;7742;44.320;19.820;2023-02-15T08:55:59;27.38;;;25.52;;
15281;SDS011;7742;44.320;19.820;2023-02-15T08:58:27;26.73;;;24.92;;
15281;SDS011;7742;44.320;19.820;2023-02-15T09:00:56;26.73;;;24.92;;
15281;SDS011;7742;44.320;19.820;2023-02-15T09:03:23;27.17;;;25.38;;
15281;SDS011;7742;44.320;19.820;2023-02-15T09:05:53;26.70;;;24.90;;
15281;SDS011;7742;44.320;19.820;2023-02-15T09:08:24;26.38;;;24.67;;
15281;SDS011;7742;44.320;19.820;2023-02-15T09:10:51;26.75;;;24.95;;
15281;SDS011;7742;44.320;19.820;2023-02-15T09:13:18;27.08;;;25.38;;
15281;SDS011;7742;44.320;19.820;2023-02-15T09:15:46;25.45;;;23.85;;
15281;SDS011;7742;44.320;19.820;2023-02-15T09:18:15;26.52;;;24.83;;
15281;SDS011;7742;44.320;19.820;2023-02-15T09:20:46;27.52;;;25.63;;
15281;SDS011;7742;44.320;19.820;2023-02-15T09:23:15;27.85;;;26.00;;
15281;SDS011;7742;44.320;19.820;2023-02-15T09:25:42;26.25;;;24.48;;
15281;SDS011;7742;44.320;19.820;2023-02-15T09:28:10;27.73;;;25.88;;
15281;SDS011;7742;44.320;19.820;2023-02-15T09:30:38;27.33;;;25.53;;
15281;SDS011;7742;44.320;19.820;2023-02-15T09:33:08;26.30;;;24.70;;
15281;SDS011;7742;44.320;19.820;2023-02-15T09:35:36;25.85;;;24.15;;
15281;SDS011;7742;44.320;19.820;2023-02-15T09:38:04;26.17;;;24.50;;
15281;SDS011;7742;44.320;19.820;2023-02-15T09:40:33;27.48;;;25.67;;
15281;SDS011;7742;44.320;19.820;2023-02-15T09:43:15;26.10;;;24.40;;
15281;SDS011;7742;44.320;19.820;2023-02-15T09:46:06;26.15;;;24.45;;
15281;SDS011;7742;44.320;19.820;2023-02-15T09:48:42;26.75;;;25.05;;
15281;SDS011;7742;44.320;19.820;2023-02-15T09:51:21;27.17;;;25.37;;
15281;SDS011;7742;44.320;19.820;2023-02-15T09:54:03;25.95;;;24.25;;
15281;SDS011;7742;44.320;19.820;2023-02-15T09:56:38;26.50;;;24.70;;
15281;SDS011;7742;44.320;19.820;2023-02-15T09:59:10;25.90;;;24.20;;
15281;SDS011;7742;44.320;19.820;2023-02-15T10:01:45;27.25;;;25.45;;
15281;SDS011;7742;44.320;19.820;2023-02-15T10:04:20;28.40;;;26.50;;
15281;SDS011;7742;44.320;19.820;2023-02-15T10:06:59;26.15;;;24.38;;
15281;SDS011;7742;44.320;19.820;2023-02-15T10:09:37;27.00;;;25.20;;
15281;SDS011;7742;44.320;19.820;2023-02-15T10:15:27;27.25;;;25.42;;
15281;SDS011;7742;44.320;19.820;2023-02-15T10:18:11;28.05;;;26.15;;
15281;SDS011;7742;44.320;19.820;2023-02-15T10:20:50;25.80;;;24.10;;
15281;SDS011;7742;44.320;19.820;2023-02-15T10:23:26;27.38;;;25.58;;
15281;SDS011;7742;44.320;19.820;2023-02-15T10:26:05;26.38;;;24.67;;
15281;SDS011;7742;44.320;19.820;2023-02-15T10:28:42;26.33;;;24.63;;
15281;SDS011;7742;44.320;19.820;2023-02-15T10:31:14;26.77;;;24.90;;
15281;SDS011;7742;44.320;19.820;2023-02-15T10:33:48;25.75;;;24.05;;
15281;SDS011;7742;44.320;19.820;2023-02-15T10:36:26;27.40;;;25.60;;
15281;SDS011;7742;44.320;19.820;2023-02-15T10:39:01;27.42;;;25.52;;
15281;SDS011;7742;44.320;19.820;2023-02-15T10:41:33;26.67;;;24.98;;
15281;SDS011;7742;44.320;19.820;2023-02-15T10:44:18;27.98;;;26.10;;
15281;SDS011;7742;44.320;19.820;2023-02-15T10:47:07;26.33;;;24.60;;
15281;SDS011;7742;44.320;19.820;2023-02-15T10:49:53;25.92;;;24.23;;
15281;SDS011;7742;44.320;19.820;2023-02-15T10:52:36;26.25;;;24.50;;
15281;SDS011;7742;44.320;19.820;2023-02-15T10:55:08;26.75;;;24.95;;
15281;SDS011;7742;44.320;19.820;2023-02-15T10:57:44;27.10;;;25.30;;
15281;SDS011;7742;44.320;19.820;2023-02-15T11:00:18;25.77;;;24.17;;
15281;SDS011;7742;44.320;19.820;2023-02-15T11:02:55;26.25;;;24.45;;
15281;SDS011;7742;44.320;19.820;2023-02-15T11:05:36;27.45;;;25.65;;
15281;SDS011;7742;44.320;19.820;2023-02-15T11:08:07;27.70;;;25.90;;
15281;SDS011;7742;44.320;19.820;2023-02-15T11:10:37;27.08;;;25.27;;
15281;SDS011;7742;44.320;19.820;2023-02-15T11:13:27;26.65;;;24.88;;
15281;SDS011;7742;44.320;19.820;2023-02-15T11:16:02;27.90;;;26.03;;
15281;SDS011;7742;44.320;19.820;2023-02-15T11:18:32;28.55;;;26.65;;
15281;SDS011;7742;44.320;19.820;2023-02-15T11:21:01;25.35;;;23.67;;
15281;SDS011;7742;44.320;19.820;2023-02-15T11:23:30;24.57;;;22.97;;
15281;SDS011;7742;44.320;19.820;2023-02-15T11:25:59;25.75;;;24.05;;
15281;SDS011;7742;44.320;19.820;2023-02-15T11:28:30;26.40;;;24.63;;
15281;SDS011;7742;44.320;19.820;2023-02-15T11:30:58;26.60;;;24.80;;
15281;SDS011;7742;44.320;19.820;2023-02-15T11:33:46;25.63;;;24.00;;
15281;SDS011;7742;44.320;19.820;2023-02-15T11:36:21;26.40;;;24.63;;
15281;SDS011;7742;44.320;19.820;2023-02-15T11:38:51;25.60;;;23.90;;
15281;SDS011;7742;44.320;19.820;2023-02-15T11:41:24;24.43;;;22.83;;
15281;SDS011;7742;44.320;19.820;2023-02-15T11:43:54;25.55;;;23.75;;
15281;SDS011;7742;44.320;19.820;2023-02-15T11:46:26;25.23;;;23.63;;
15281;SDS011;7742;44.320;19.820;2023-02-15T11:48:53;26.33;;;24.50;;
15281;SDS011;7742;44.320;19.820;2023-02-15T11:51:21;24.77;;;23.15;;
15281;SDS011;7742;44.320;19.820;2023-02-15T11:53:49;27.70;;;25.80;;
15281;SDS011;7742;44.320;19.820;2023-02-15T11:56:17;27.15;;;25.33;;
15281;SDS011;7742;44.320;19.820;2023-02-15T11:58:45;26.00;;;24.30;;
15281;SDS011;7742;44.320;19.820;2023-02-15T12:01:16;26.45;;;24.65;;
15281;SDS011;7742;44.320;19.820;2023-02-15T12:03:47;27.20;;;25.37;;
15281;SDS011;7742;44.320;19.820;2023-02-15T12:06:16;27.42;;;25.52;;
15281;SDS011;7742;44.320;19.820;2023-02-15T12:08:50;28.23;;;26.23;;
15281;SDS011;7742;44.320;19.820;2023-02-15T12:11:22;27.98;;;26.08;;
15281;SDS011;7742;44.320;19.820;2023-02-15T12:16:55;29.08;;;27.00;;
15281;SDS011;7742;44.320;19.820;2023-02-15T12:19:36;28.20;;;26.17;;
15281;SDS011;7742;44.320;19.820;2023-02-15T12:22:05;28.58;;;26.60;;
15281;SDS011;7742;44.320;19.820;2023-02-15T12:24:33;27.85;;;25.85;;
15281;SDS011;7742;44.320;19.820;2023-02-15T12:27:03;28.70;;;26.70;;
15281;SDS011;7742;44.320;19.820;2023-02-15T12:29:34;28.23;;;26.15;;
15281;SDS011;7742;44.320;19.820;2023-02-15T12:32:02;28.25;;;26.27;;
15281;SDS011;7742;44.320;19.820;2023-02-15T12:34:30;28.73;;;26.63;;
15281;SDS011;7742;44.320;19.820;2023-02-15T12:37:08;27.77;;;25.88;;
15281;SDS011;7742;44.320;19.820;2023-02-15T12:39:36;30.35;;;28.13;;
15281;SDS011;7742;44.320;19.820;2023-02-15T12:42:04;28.58;;;26.48;;
15281;SDS011;7742;44.320;19.820;2023-02-15T12:44:40;31.75;;;29.35;;
15281;SDS011;7742;44.320;19.820;2023-02-15T12:47:20;30.23;;;28.02;;
15281;SDS011;7742;44.320;19.820;2023-02-15T12:50:03;30.27;;;28.17;;
15281;SDS011;7742;44.320;19.820;2023-02-15T12:52:34;31.05;;;28.85;;
15281;SDS011;7742;44.320;19.820;2023-02-15T12:55:09;31.90;;;29.55;;
15281;SDS011;7742;44.320;19.820;2023-02-15T12:57:37;32.53;;;30.13;;
15281;SDS011;7742;44.320;19.820;2023-02-15T13:00:05;32.90;;;30.50;;
15281;SDS011;7742;44.320;19.820;2023-02-15T13:02:51;32.70;;;30.30;;
15281;SDS011;7742;44.320;19.820;2023-02-15T13:05:21;32.58;;;30.10;;
15281;SDS011;7742;44.320;19.820;2023-02-15T13:07:53;32.42;;;30.02;;
15281;SDS011;7742;44.320;19.820;2023-02-15T13:10:23;32.83;;;30.23;;
15281;SDS011;7742;44.320;19.820;2023-02-15T13:12:52;34.95;;;32.25;;
15281;SDS011;7742;44.320;19.820;2023-02-15T13:15:27;35.53;;;32.72;;
15281;SDS011;7742;44.320;19.820;2023-02-15T13:17:57;35.72;;;33.05;;
15281;SDS011;7742;44.320;19.820;2023-02-15T13:20:27;33.67;;;31.08;;
15281;SDS011;7742;44.320;19.820;2023-02-15T13:22:56;35.08;;;32.45;;
15281;SDS011;7742;44.320;19.820;2023-02-15T13:25:25;33.55;;;30.85;;
15281;SDS011;7742;44.320;19.820;2023-02-15T13:27:55;32.63;;;30.23;;
15281;SDS011;7742;44.320;19.820;2023-02-15T13:30:24;33.75;;;31.17;;
15281;SDS011;7742;44.320;19.820;2023-02-15T13:32:54;34.38;;;31.67;;
15281;SDS011;7742;44.320;19.820;2023-02-15T13:35:23;33.42;;;30.73;;
15281;SDS011;7742;44.320;19.820;2023-02-15T13:38:00;35.58;;;32.67;;
15281;SDS011;7742;44.320;19.820;2023-02-15T13:40:33;35.53;;;32.80;;
15281;SDS011;7742;44.320;19.820;2023-02-15T13:43:05;35.05;;;32.25;;
15281;SDS011;7742;44.320;19.820;2023-02-15T13:45:39;36.08;;;33.35;;
15281;SDS011;7742;44.320;19.820;2023-02-15T13:48:12;35.43;;;32.80;;
15281;SDS011;7742;44.320;19.820;2023-02-15T13:50:49;34.83;;;32.03;;
15281;SDS011;7742;44.320;19.820;2023-02-15T13:53:31;34.03;;;31.42;;
15281;SDS011;7742;44.320;19.820;2023-02-15T13:56:10;35.20;;;32.60;;
15281;SDS011;7742;44.320;19.820;2023-02-15T14:01:38;33.28;;;30.77;;
15281;SDS011;7742;44.320;19.820;2023-02-15T14:04:21;35.53;;;32.83;;
15281;SDS011;7742;44.320;19.820;2023-02-15T14:10:23;33.45;;;30.75;;
15281;SDS011;7742;44.320;19.820;2023-02-15T14:13:01;34.00;;;31.40;;
15281;SDS011;7742;44.320;19.820;2023-02-15T14:15:38;33.30;;;30.73;;
15281;SDS011;7742;44.320;19.820;2023-02-15T14:18:13;34.33;;;31.63;;
15281;SDS011;7742;44.320;19.820;2023-02-15T14:20:47;33.80;;;31.20;;
15281;SDS011;7742;44.320;19.820;2023-02-15T14:23:23;33.83;;;30.92;;
15281;SDS011;7742;44.320;19.820;2023-02-15T14:25:59;33.65;;;30.98;;
15281;SDS011;7742;44.320;19.820;2023-02-15T14:28:31;33.92;;;31.25;;
15281;SDS011;7742;44.320;19.820;2023-02-15T14:31:01;34.10;;;31.40;;
15281;SDS011;7742;44.320;19.820;2023-02-15T14:33:31;35.30;;;32.53;;
15281;SDS011;7742;44.320;19.820;2023-02-15T14:35:59;35.03;;;32.33;;
15281;SDS011;7742;44.320;19.820;2023-02-15T14:38:32;32.53;;;30.02;;
15281;SDS011;7742;44.320;19.820;2023-02-15T14:41:07;34.70;;;32.00;;
15281;SDS011;7742;44.320;19.820;2023-02-15T14:43:47;34.45;;;31.85;;
15281;SDS011;7742;44.320;19.820;2023-02-15T14:46:19;33.78;;;31.17;;
15281;SDS011;7742;44.320;19.820;2023-02-15T14:48:50;35.40;;;32.75;;
15281;SDS011;7742;44.320;19.820;2023-02-15T14:57:26;34.30;;;31.50;;
15281;SDS011;7742;44.320;19.820;2023-02-15T14:59:56;32.47;;;29.97;;
15281;SDS011;7742;44.320;19.820;2023-02-15T15:02:25;33.60;;;31.10;;
15281;SDS011;7742;44.320;19.820;2023-02-15T15:04:58;33.90;;;31.33;;
15281;SDS011;7742;44.320;19.820;2023-02-15T15:07:28;32.65;;;30.15;;
15281;SDS011;7742;44.320;19.820;2023-02-15T15:10:04;33.10;;;30.50;;
15281;SDS011;7742;44.320;19.820;2023-02-15T15:12:42;33.95;;;31.25;;
15281;SDS011;7742;44.320;19.820;2023-02-15T15:15:14;32.83;;;30.27;;
15281;SDS011;7742;44.320;19.820;2023-02-15T15:17:59;32.75;;;30.05;;
15281;SDS011;7742;44.320;19.820;2023-02-15T15:20:38;34.03;;;31.45;;
15281;SDS011;7742;44.320;19.820;2023-02-15T15:29:13;36.33;;;33.53;;
15281;SDS011;7742;44.320;19.820;2023-02-15T15:32:06;34.08;;;31.48;;